createdAt,value
2018-11-27T00:01:11.532Z,79.57
2018-11-27T00:03:45.070Z,79.59
2018-11-27T00:06:13.199Z,79.55
2018-11-27T00:08:41.329Z,80.49
2018-11-27T00:11:09.481Z,80.39
2018-11-27T00:13:37.624Z,80.86
2018-11-27T00:16:05.806Z,80.99
2018-11-27T00:18:33.915Z,81.09
2018-11-27T00:21:02.057Z,80.80
2018-11-27T00:23:30.176Z,80.87
2018-11-27T00:25:58.312Z,80.59
2018-11-27T00:28:26.459Z,80.90
2018-11-27T00:30:54.551Z,80.82
2018-11-27T00:33:22.677Z,80.78
2018-11-27T00:35:50.772Z,80.61
2018-11-27T00:38:18.861Z,80.37
2018-11-27T00:40:47.011Z,80.40
2018-11-27T00:43:15.151Z,81.05
2018-11-27T00:45:43.299Z,81.17
2018-11-27T00:48:11.415Z,81.03
2018-11-27T00:50:39.510Z,81.31
2018-11-27T00:53:07.605Z,81.17
2018-11-27T00:55:35.721Z,80.80
2018-11-27T00:58:03.821Z,81.00
2018-11-27T01:00:32.047Z,81.10
2018-11-27T01:03:00.150Z,81.27
2018-11-27T01:05:28.238Z,81.00
2018-11-27T01:07:56.369Z,81.23
2018-11-27T01:10:25.785Z,81.25
2018-11-27T01:12:53.920Z,80.85
2018-11-27T01:15:22.347Z,80.89
2018-11-27T01:17:54.919Z,81.17
2018-11-27T01:20:23.249Z,80.95
2018-11-27T01:22:51.333Z,80.92
2018-11-27T01:25:19.449Z,81.37
2018-11-27T01:27:47.567Z,80.90
2018-11-27T01:30:17.665Z,80.66
2018-11-27T01:32:45.876Z,80.93
2018-11-27T01:35:15.592Z,81.41
2018-11-27T01:37:43.781Z,81.08
2018-11-27T01:40:14.262Z,81.70
2018-11-27T01:42:42.442Z,81.27
2018-11-27T01:45:11.726Z,80.74
2018-11-27T01:47:39.941Z,80.58
2018-11-27T01:50:09.897Z,80.36
2018-11-27T01:52:38.093Z,80.44
2018-11-27T01:55:07.674Z,80.71
2018-11-27T01:57:36.033Z,80.98
2018-11-27T02:00:06.738Z,80.52
2018-11-27T02:02:34.839Z,81.10
2018-11-27T02:05:02.934Z,80.49
2018-11-27T02:07:31.046Z,80.90
2018-11-27T02:09:59.197Z,80.36
2018-11-27T02:12:27.325Z,80.20
2018-11-27T02:14:55.417Z,80.56
2018-11-27T02:17:23.511Z,80.62
2018-11-27T02:19:51.662Z,80.34
2018-11-27T02:22:19.753Z,79.99
2018-11-27T02:24:47.841Z,79.95
2018-11-27T02:27:15.922Z,79.64
2018-11-27T02:29:44.006Z,79.83
2018-11-27T02:32:12.095Z,79.76
2018-11-27T02:34:40.254Z,79.89
2018-11-27T02:37:08.341Z,80.46
2018-11-27T02:39:36.418Z,80.02
2018-11-27T02:42:04.520Z,79.99
2018-11-27T02:44:32.696Z,80.62
2018-11-27T02:47:00.785Z,79.77
2018-11-27T02:49:28.875Z,79.57
2018-11-27T02:51:56.975Z,79.39
2018-11-27T02:54:25.060Z,79.20
2018-11-27T02:56:53.140Z,79.16
2018-11-27T02:59:21.579Z,79.64
2018-11-27T03:01:49.657Z,79.75
2018-11-27T03:04:17.734Z,79.96
2018-11-27T03:06:45.866Z,79.85
2018-11-27T03:09:14.065Z,79.34
2018-11-27T03:11:42.150Z,79.36
2018-11-27T03:16:44.587Z,79.42
2018-11-27T03:19:12.757Z,79.68
2018-11-27T03:21:40.934Z,79.26
2018-11-27T03:24:09.038Z,79.45
2018-11-27T03:26:37.129Z,79.54
2018-11-27T03:29:06.094Z,79.45
2018-11-27T03:31:34.211Z,79.34
2018-11-27T03:34:02.310Z,79.72
2018-11-27T03:36:30.424Z,79.64
2018-11-27T03:38:58.659Z,80.26
2018-11-27T03:41:26.762Z,80.18
2018-11-27T03:43:54.877Z,80.60
2018-11-27T03:46:22.963Z,79.59
2018-11-27T03:48:51.061Z,80.13
2018-11-27T03:51:19.163Z,79.92
2018-11-27T03:53:47.419Z,80.69
2018-11-27T03:56:15.494Z,81.16
2018-11-27T03:58:43.705Z,80.95
2018-11-27T04:01:11.831Z,80.79
2018-11-27T04:03:39.917Z,80.68
2018-11-27T04:06:08.034Z,80.81
2018-11-27T04:08:36.198Z,81.10
2018-11-27T04:11:04.304Z,81.13
2018-11-27T04:13:32.387Z,80.94
2018-11-27T04:16:00.472Z,81.31
2018-11-27T04:18:28.550Z,80.89
2018-11-27T04:20:56.725Z,81.36
2018-11-27T04:23:25.230Z,81.25
2018-11-27T04:25:53.402Z,81.18
2018-11-27T04:28:21.486Z,81.07
2018-11-27T04:30:49.582Z,81.04
2018-11-27T04:33:17.681Z,81.26
2018-11-27T04:35:45.878Z,81.12
2018-11-27T04:38:13.964Z,81.25
2018-11-27T04:40:42.026Z,80.87
2018-11-27T04:43:10.107Z,80.86
2018-11-27T04:45:38.204Z,81.17
2018-11-27T04:48:06.278Z,81.16
2018-11-27T04:50:34.439Z,81.55
2018-11-27T04:53:02.537Z,81.68
2018-11-27T04:55:30.642Z,81.90
2018-11-27T04:57:58.730Z,82.09
2018-11-27T05:00:27.534Z,82.29
2018-11-27T05:02:55.626Z,82.38
2018-11-27T05:05:23.750Z,82.02
2018-11-27T05:07:51.829Z,82.36
2018-11-27T05:10:24.086Z,82.62
2018-11-27T05:12:52.268Z,82.67
2018-11-27T05:15:22.307Z,81.96
2018-11-27T05:17:55.511Z,82.40
2018-11-27T05:20:23.605Z,82.28
2018-11-27T05:22:51.702Z,82.68
2018-11-27T05:25:20.127Z,82.93
2018-11-27T05:27:49.363Z,82.69
2018-11-27T05:30:18.360Z,82.95
2018-11-27T05:32:46.466Z,82.67
2018-11-27T05:35:16.558Z,82.45
2018-11-27T05:37:45.690Z,82.68
2018-11-27T05:40:18.366Z,82.33
2018-11-27T05:42:46.927Z,82.72
2018-11-27T05:45:16.215Z,82.52
2018-11-27T05:47:44.425Z,82.50
2018-11-27T05:50:13.698Z,82.73
2018-11-27T05:52:41.812Z,82.87
2018-11-27T05:55:10.887Z,82.93
2018-11-27T05:57:39.152Z,82.99
2018-11-27T06:00:13.658Z,82.83
2018-11-27T06:02:41.761Z,83.28
2018-11-27T06:05:13.310Z,83.54
2018-11-27T06:07:41.417Z,83.54
2018-11-27T06:10:12.835Z,83.84
2018-11-27T06:12:40.997Z,84.10
2018-11-27T06:15:12.265Z,83.07
2018-11-27T06:17:40.440Z,83.19
2018-11-27T06:20:10.654Z,83.64
2018-11-27T06:22:38.733Z,82.40
2018-11-27T06:25:08.819Z,82.02
2018-11-27T06:27:36.954Z,82.16
2018-11-27T06:30:10.630Z,82.48
2018-11-27T06:32:38.754Z,81.85
2018-11-27T06:35:08.271Z,81.08
2018-11-27T06:37:36.363Z,81.15
2018-11-27T06:40:08.146Z,80.68
2018-11-27T06:42:36.218Z,80.74
2018-11-27T06:45:04.774Z,80.32
2018-11-27T06:47:32.866Z,80.99
2018-11-27T06:50:00.949Z,80.40
2018-11-27T06:52:29.030Z,80.09
2018-11-27T06:54:57.109Z,79.72
2018-11-27T06:57:25.218Z,79.87
2018-11-27T06:59:53.358Z,79.83
2018-11-27T07:02:27.962Z,79.68
2018-11-27T07:04:56.057Z,79.12
2018-11-27T07:07:24.137Z,79.46
2018-11-27T07:09:52.229Z,79.96
2018-11-27T07:12:20.302Z,79.94
2018-11-27T07:14:48.478Z,79.39
2018-11-27T07:17:16.673Z,78.91
2018-11-27T07:19:44.758Z,79.50
2018-11-27T07:22:12.856Z,79.97
2018-11-27T07:24:41.022Z,79.17
2018-11-27T07:27:09.123Z,79.08
2018-11-27T07:29:37.255Z,78.83
2018-11-27T07:32:09.429Z,78.61
2018-11-27T07:34:33.918Z,78.99
2018-11-27T07:37:02.049Z,78.79
2018-11-27T07:39:30.181Z,78.89
2018-11-27T07:41:58.266Z,79.86
2018-11-27T07:44:26.350Z,79.89
2018-11-27T07:46:54.534Z,78.97
2018-11-27T07:49:22.601Z,78.78
2018-11-27T07:51:50.697Z,78.65
2018-11-27T07:54:18.810Z,78.57
2018-11-27T07:56:46.886Z,78.86
2018-11-27T07:59:14.967Z,78.00
2018-11-27T08:01:43.066Z,77.51
2018-11-27T08:04:11.146Z,77.85
2018-11-27T08:06:39.268Z,77.72
2018-11-27T08:09:09.474Z,77.68
2018-11-27T08:11:37.559Z,77.82
2018-11-27T08:14:08.266Z,77.75
2018-11-27T08:16:36.465Z,77.61
2018-11-27T08:19:04.846Z,77.56
2018-11-27T08:21:32.974Z,77.29
2018-11-27T08:24:01.062Z,78.06
2018-11-27T08:26:29.206Z,77.06
2018-11-27T08:28:57.317Z,77.43
2018-11-27T08:31:25.418Z,76.45
2018-11-27T08:33:53.569Z,76.81
2018-11-27T08:36:21.671Z,76.22
2018-11-27T08:38:49.786Z,76.45
2018-11-27T08:41:17.885Z,76.35
2018-11-27T08:43:46.011Z,76.23
2018-11-27T08:46:14.161Z,75.49
2018-11-27T08:48:42.270Z,75.02
2018-11-27T08:51:10.378Z,74.89
2018-11-27T08:53:38.478Z,75.21
2018-11-27T08:56:07.522Z,74.91
2018-11-27T08:58:36.215Z,74.75
2018-11-27T09:01:03.835Z,74.70
2018-11-27T09:03:32.022Z,74.16
2018-11-27T09:06:00.107Z,73.91
2018-11-27T09:08:28.188Z,74.54
2018-11-27T09:10:56.269Z,74.63
2018-11-27T09:13:24.326Z,74.38
2018-11-27T09:15:52.414Z,73.98
2018-11-27T09:18:22.070Z,74.41
2018-11-27T09:20:50.258Z,74.62
2018-11-27T09:23:18.331Z,74.78
2018-11-27T09:25:46.417Z,75.11
2018-11-27T09:28:14.499Z,74.80
2018-11-27T09:30:42.585Z,74.43
2018-11-27T09:33:10.649Z,74.41
2018-11-27T09:35:38.724Z,74.48
2018-11-27T09:38:07.491Z,73.94
2018-11-27T09:40:35.785Z,74.45
2018-11-27T09:43:03.968Z,73.86
2018-11-27T09:45:32.064Z,73.87
2018-11-27T09:48:00.274Z,74.05
2018-11-27T09:50:28.378Z,73.64
2018-11-27T09:52:56.484Z,73.53
2018-11-27T09:55:26.682Z,74.32
2018-11-27T09:57:59.169Z,74.34
2018-11-27T10:00:24.871Z,74.58
2018-11-27T10:02:54.219Z,74.97
2018-11-27T10:05:22.301Z,75.00
2018-11-27T10:07:50.396Z,74.42
2018-11-27T10:10:19.970Z,74.56
2018-11-27T10:12:48.066Z,74.77
2018-11-27T10:15:17.402Z,75.02
2018-11-27T10:17:46.658Z,74.75
2018-11-27T10:20:16.134Z,75.08
2018-11-27T10:22:44.222Z,74.86
2018-11-27T10:25:12.369Z,74.67
2018-11-27T10:27:40.811Z,74.71
2018-11-27T10:30:13.858Z,74.22
2018-11-27T10:32:41.964Z,74.38
2018-11-27T10:35:15.346Z,73.99
2018-11-27T10:37:43.509Z,74.39
2018-11-27T10:40:11.671Z,74.46
2018-11-27T10:42:39.825Z,74.66
2018-11-27T10:45:11.290Z,74.59
2018-11-27T10:47:39.435Z,75.11
2018-11-27T10:50:09.763Z,74.59
2018-11-27T10:52:38.502Z,74.53
2018-11-27T10:55:08.604Z,74.91
2018-11-27T10:57:36.765Z,74.20
2018-11-27T11:00:08.926Z,74.45
2018-11-27T11:02:37.069Z,74.09
2018-11-27T11:05:05.920Z,74.09
2018-11-27T11:07:33.999Z,74.18
2018-11-27T11:12:36.611Z,74.58
2018-11-27T11:15:05.266Z,73.84
2018-11-27T11:17:33.393Z,74.08
2018-11-27T11:20:01.520Z,73.98
2018-11-27T11:22:29.618Z,74.27
2018-11-27T11:24:57.722Z,73.74
2018-11-27T11:27:25.837Z,73.67
2018-11-27T11:29:53.969Z,73.71
2018-11-27T11:32:22.110Z,73.71
2018-11-27T11:34:50.219Z,73.64
2018-11-27T11:37:18.401Z,73.26
2018-11-27T11:39:46.531Z,73.98
2018-11-27T11:42:14.647Z,73.96
2018-11-27T11:44:42.808Z,73.85
2018-11-27T11:47:10.911Z,74.24
2018-11-27T11:49:39.291Z,74.53
2018-11-27T11:52:07.426Z,74.22
2018-11-27T11:54:35.611Z,74.70
2018-11-27T11:57:03.781Z,74.63
2018-11-27T11:59:31.915Z,74.13
2018-11-27T12:02:00.066Z,74.31
2018-11-27T12:04:28.197Z,74.75
2018-11-27T12:06:56.303Z,74.45
2018-11-27T12:09:24.462Z,74.81
2018-11-27T12:11:52.618Z,74.95
2018-11-27T12:14:20.780Z,74.96
2018-11-27T12:16:48.851Z,74.67
2018-11-27T12:19:16.944Z,74.49
2018-11-27T12:21:45.017Z,74.08
2018-11-27T12:24:19.755Z,74.34
2018-11-27T12:26:47.869Z,74.86
2018-11-27T12:29:15.941Z,74.35
2018-11-27T12:31:44.068Z,74.43
2018-11-27T12:34:12.132Z,74.47
2018-11-27T12:36:40.214Z,74.68
2018-11-27T12:39:08.604Z,74.57
2018-11-27T12:41:36.740Z,75.10
2018-11-27T12:44:04.898Z,74.93
2018-11-27T12:46:33.028Z,75.50
2018-11-27T12:49:01.158Z,75.57
2018-11-27T12:51:29.283Z,75.71
2018-11-27T12:53:57.428Z,75.86
2018-11-27T12:56:25.563Z,75.85
2018-11-27T12:58:53.677Z,76.36
2018-11-27T13:01:21.811Z,76.74
2018-11-27T13:03:49.913Z,76.89
2018-11-27T13:06:18.103Z,76.41
2018-11-27T13:08:46.218Z,76.58
2018-11-27T13:11:14.419Z,76.38
2018-11-27T13:13:42.631Z,76.32
2018-11-27T13:16:10.790Z,76.27
2018-11-27T13:18:38.966Z,75.78
2018-11-27T13:21:07.146Z,75.88
2018-11-27T13:23:35.277Z,75.97
2018-11-27T13:26:03.399Z,76.21
2018-11-27T13:28:31.502Z,76.51
2018-11-27T13:31:01.565Z,76.45
2018-11-27T13:33:34.568Z,76.38
2018-11-27T13:36:02.705Z,76.71
2018-11-27T13:38:30.778Z,76.54
2018-11-27T13:40:58.865Z,77.07
2018-11-27T13:43:29.552Z,77.52
2018-11-27T13:45:58.802Z,77.24
2018-11-27T13:48:27.099Z,77.94
2018-11-27T13:50:55.201Z,77.07
2018-11-27T13:53:23.315Z,77.40
2018-11-27T13:55:51.464Z,77.84
2018-11-27T13:58:19.576Z,77.08
2018-11-27T14:00:47.694Z,77.17
2018-11-27T14:03:15.821Z,77.65
2018-11-27T14:05:44.008Z,77.14
2018-11-27T14:08:12.334Z,77.21
2018-11-27T14:10:40.583Z,77.01
2018-11-27T14:13:09.243Z,77.31
2018-11-27T14:15:37.578Z,76.90
2018-11-27T14:18:06.183Z,76.65
2018-11-27T14:20:34.239Z,76.31
2018-11-27T14:23:02.307Z,76.24
2018-11-27T14:25:30.916Z,76.52
2018-11-27T14:27:59.021Z,76.36
2018-11-27T14:30:27.105Z,76.69
2018-11-27T14:32:55.205Z,75.88
2018-11-27T14:35:23.951Z,76.00
2018-11-27T14:37:53.297Z,76.30
2018-11-27T14:40:22.498Z,76.86
2018-11-27T14:42:50.588Z,76.36
2018-11-27T14:45:19.996Z,76.56
2018-11-27T14:47:50.042Z,75.81
2018-11-27T14:50:18.190Z,77.69
2018-11-27T14:52:46.329Z,77.40
2018-11-27T14:55:16.651Z,77.24
2018-11-27T14:57:44.773Z,77.76
2018-11-27T15:00:14.074Z,77.82
2018-11-27T15:02:42.208Z,78.31
2018-11-27T15:05:13.099Z,78.87
2018-11-27T15:07:41.258Z,79.32
2018-11-27T15:10:11.396Z,79.44
2018-11-27T15:12:39.598Z,80.22
2018-11-27T15:15:11.138Z,80.10
2018-11-27T15:17:39.299Z,79.98
2018-11-27T15:20:10.115Z,79.48
2018-11-27T15:22:38.365Z,79.20
2018-11-27T15:25:07.014Z,79.04
2018-11-27T15:27:35.698Z,79.05
2018-11-27T15:30:05.970Z,78.94
2018-11-27T15:32:34.093Z,79.19
2018-11-27T15:35:02.269Z,78.31
2018-11-27T15:37:30.564Z,78.54
2018-11-27T15:39:58.642Z,78.89
2018-11-27T15:42:33.456Z,78.56
2018-11-27T15:45:01.555Z,78.27
2018-11-27T15:47:29.645Z,78.47
2018-11-27T15:49:57.776Z,78.43
2018-11-27T15:52:25.899Z,78.84
2018-11-27T15:54:53.985Z,78.86
2018-11-27T15:57:22.101Z,78.37
2018-11-27T15:59:51.181Z,77.86
2018-11-27T16:02:19.280Z,77.51
2018-11-27T16:04:47.376Z,78.19
2018-11-27T16:07:15.462Z,78.17
2018-11-27T16:09:43.570Z,78.14
2018-11-27T16:12:11.642Z,78.20
2018-11-27T16:14:39.711Z,78.22
2018-11-27T16:17:07.800Z,78.26
2018-11-27T16:19:35.977Z,78.65
2018-11-27T16:22:04.055Z,79.14
2018-11-27T16:24:32.137Z,78.72
2018-11-27T16:27:00.203Z,79.37
2018-11-27T16:29:28.284Z,79.24
2018-11-27T16:31:56.362Z,78.51
2018-11-27T16:34:24.440Z,78.68
2018-11-27T16:36:52.598Z,78.62
2018-11-27T16:39:20.731Z,78.82
2018-11-27T16:41:48.805Z,78.83
2018-11-27T16:44:16.914Z,78.71
2018-11-27T16:46:45.071Z,78.25
2018-11-27T16:49:13.175Z,78.28
2018-11-27T16:51:41.274Z,78.12
2018-11-27T16:54:09.369Z,78.56
2018-11-27T16:56:37.453Z,78.27
2018-11-27T16:59:05.605Z,77.81
2018-11-27T17:01:33.750Z,78.03
2018-11-27T17:04:01.896Z,78.32
2018-11-27T17:06:30.022Z,78.07
2018-11-27T17:08:58.135Z,78.22
2018-11-27T17:11:26.283Z,78.01
2018-11-27T17:13:54.430Z,77.50
2018-11-27T17:16:22.486Z,77.46
2018-11-27T17:18:50.576Z,77.53
2018-11-27T17:21:18.653Z,77.88
2018-11-27T17:23:49.983Z,77.91
2018-11-27T17:26:38.589Z,77.56
2018-11-27T17:29:32.667Z,77.51
2018-11-27T17:32:02.535Z,78.09
2018-11-27T17:34:32.159Z,77.84
2018-11-27T17:37:19.967Z,77.91
2018-11-27T17:39:50.007Z,77.85
2018-11-27T17:42:20.088Z,77.44
2018-11-27T17:44:51.368Z,77.43
2018-11-27T17:47:21.291Z,77.52
2018-11-27T17:49:50.173Z,76.81
2018-11-27T17:52:22.095Z,75.91
2018-11-27T17:54:53.195Z,76.53
2018-11-27T17:57:21.653Z,76.84
2018-11-27T17:59:52.603Z,76.36
2018-11-27T18:02:25.714Z,76.90
2018-11-27T18:04:55.161Z,76.00
2018-11-27T18:07:40.769Z,75.54
2018-11-27T18:13:03.308Z,75.88
2018-11-27T18:15:34.194Z,76.90
2018-11-27T18:18:13.327Z,77.45
2018-11-27T18:20:44.337Z,77.50
2018-11-27T18:23:18.024Z,77.42
2018-11-27T18:25:47.427Z,77.59
2018-11-27T18:28:18.062Z,77.27
2018-11-27T18:30:51.084Z,76.77
2018-11-27T18:33:27.081Z,76.40
2018-11-27T18:36:01.125Z,75.97
2018-11-27T18:38:31.631Z,75.30
2018-11-27T18:41:04.395Z,74.93
2018-11-27T18:44:05.769Z,75.01
2018-11-27T18:49:38.053Z,74.92
2018-11-27T18:52:14.012Z,75.54
2018-11-27T18:54:50.665Z,76.00
2018-11-27T18:57:21.466Z,75.87
2018-11-27T18:59:54.688Z,75.51
2018-11-27T19:02:28.628Z,75.21
2018-11-27T19:05:01.397Z,75.13
2018-11-27T19:07:35.206Z,74.80
2018-11-27T19:10:08.087Z,74.72
2018-11-27T19:12:38.109Z,74.76
2018-11-27T19:15:14.031Z,74.61
2018-11-27T19:17:49.100Z,74.50
2018-11-27T19:20:17.659Z,74.97
2018-11-27T19:22:49.730Z,74.69
2018-11-27T19:25:19.830Z,74.68
2018-11-27T19:27:50.194Z,74.10
2018-11-27T19:30:23.622Z,73.99
2018-11-27T19:32:52.320Z,74.47
2018-11-27T19:35:25.281Z,74.79
2018-11-27T19:37:52.757Z,74.90
2018-11-27T19:40:24.078Z,75.16
2018-11-27T19:42:59.513Z,75.38
2018-11-27T19:45:43.298Z,75.19
2018-11-27T19:48:21.681Z,74.19
2018-11-27T19:50:50.451Z,74.23
2018-11-27T19:53:20.138Z,74.88
2018-11-27T19:55:50.668Z,74.62
2018-11-27T19:58:25.696Z,74.62
2018-11-27T20:00:56.488Z,74.53
2018-11-27T20:03:41.039Z,75.42
2018-11-27T20:07:13.251Z,74.94
2018-11-27T20:09:44.573Z,75.57
2018-11-27T20:12:16.220Z,75.74
2018-11-27T20:14:45.840Z,75.62
2018-11-27T20:17:14.241Z,76.03
2018-11-27T20:19:42.889Z,76.69
2018-11-27T20:22:16.724Z,77.22
2018-11-27T20:24:45.188Z,78.88
2018-11-27T20:27:26.407Z,80.28
2018-11-27T20:30:14.748Z,80.10
2018-11-27T20:32:52.213Z,79.41
2018-11-27T20:35:28.172Z,79.05
2018-11-27T20:38:07.431Z,77.99
2018-11-27T20:40:46.803Z,78.29
2018-11-27T20:43:36.302Z,79.74
2018-11-27T20:46:08.030Z,80.15
2018-11-27T20:48:40.388Z,81.39
2018-11-27T20:51:13.101Z,81.82
2018-11-27T20:53:47.854Z,81.61
2018-11-27T20:56:17.546Z,80.34
2018-11-27T21:04:31.000Z,83.32
2018-11-27T21:09:43.204Z,81.57
2018-11-27T21:12:21.193Z,80.87
2018-11-27T21:14:59.765Z,80.67
2018-11-27T21:17:34.504Z,80.03
2018-11-27T21:20:07.102Z,79.87
2018-11-27T21:22:36.141Z,79.75
2018-11-27T21:25:09.897Z,80.89
2018-11-27T21:27:39.416Z,81.78
2018-11-27T21:30:16.234Z,82.68
2018-11-27T21:32:47.440Z,83.03
2018-11-27T21:35:17.485Z,84.20
2018-11-27T21:37:52.423Z,84.74
2018-11-27T21:40:28.664Z,84.59
2018-11-27T21:43:05.780Z,84.98
2018-11-27T21:45:35.235Z,84.97
2018-11-27T21:48:04.444Z,84.41
2018-11-27T21:50:38.967Z,83.63
2018-11-27T21:53:11.693Z,83.34
2018-11-27T21:55:48.409Z,85.37
2018-11-27T21:58:19.935Z,85.40
2018-11-27T22:00:48.420Z,85.82
2018-11-27T22:03:21.447Z,87.12
2018-11-27T22:05:50.702Z,87.77
2018-11-27T22:08:19.084Z,87.28
2018-11-27T22:10:49.235Z,86.67
2018-11-27T22:13:20.247Z,86.08
2018-11-27T22:15:48.547Z,85.92
2018-11-27T22:18:17.484Z,86.26
2018-11-27T22:20:46.702Z,85.76
2018-11-27T22:23:15.405Z,85.68
2018-11-27T22:25:44.453Z,86.32
2018-11-27T22:28:12.796Z,85.43
2018-11-27T22:30:43.938Z,85.16
2018-11-27T22:33:14.153Z,87.14
2018-11-27T22:35:46.462Z,88.11
2018-11-27T22:38:15.495Z,87.54
2018-11-27T22:40:51.592Z,87.44
2018-11-27T22:43:23.224Z,86.82
2018-11-27T22:45:51.731Z,86.50
2018-11-27T22:48:21.734Z,87.04
2018-11-27T22:50:50.615Z,87.12
2018-11-27T22:53:19.590Z,87.35
2018-11-27T22:55:48.745Z,88.40
2018-11-27T22:58:20.774Z,89.25
2018-11-27T23:00:53.832Z,88.80
2018-11-27T23:03:27.355Z,87.99
2018-11-27T23:06:04.940Z,88.19
2018-11-27T23:08:38.291Z,88.26
2018-11-27T23:11:11.753Z,89.49
2018-11-27T23:13:40.752Z,89.12
2018-11-27T23:16:12.009Z,89.39
2018-11-27T23:18:44.779Z,88.65
2018-11-27T23:21:21.144Z,88.97
2018-11-27T23:23:50.754Z,89.50
2018-11-27T23:26:21.601Z,89.45
2018-11-27T23:28:50.555Z,88.92
2018-11-27T23:34:20.871Z,88.00
2018-11-27T23:36:53.789Z,88.56
2018-11-27T23:39:22.266Z,90.22
2018-11-27T23:41:50.333Z,90.77
2018-11-27T23:44:21.427Z,90.61
2018-11-27T23:46:51.075Z,90.48
2018-11-27T23:49:23.900Z,89.65
2018-11-27T23:57:37.444Z,88.29
